createdAt,value
2023-02-15T00:01:08.535Z,99926.00
2023-02-15T00:03:36.654Z,99923.00
2023-02-15T00:06:04.837Z,99917.00
2023-02-15T00:08:32.897Z,99927.00
2023-02-15T00:11:07.881Z,99926.00
2023-02-15T00:13:39.792Z,99928.00
2023-02-15T00:16:09.923Z,99925.00
2023-02-15T00:18:37.956Z,99919.00
2023-02-15T00:21:06.356Z,99905.00
2023-02-15T00:23:34.378Z,99914.00
2023-02-15T00:26:06.901Z,99907.00
2023-02-15T00:28:34.953Z,99911.00
2023-02-15T00:31:13.684Z,99909.00
2023-02-15T00:33:41.794Z,99913.00
2023-02-15T00:36:10.697Z,99907.00
2023-02-15T00:38:38.858Z,99904.00
2023-02-15T00:41:07.707Z,99903.00
2023-02-15T00:43:35.905Z,99901.00
2023-02-15T00:46:04.406Z,99898.00
2023-02-15T00:48:33.952Z,99912.00
2023-02-15T00:51:02.515Z,99901.00
2023-02-15T00:53:30.720Z,99899.00
2023-02-15T00:55:58.959Z,99893.00
2023-02-15T00:58:27.222Z,99897.00
2023-02-15T01:00:55.363Z,99899.00
2023-02-15T01:03:23.480Z,99902.00
2023-02-15T01:05:52.910Z,99896.00
2023-02-15T01:08:21.007Z,99893.00
2023-02-15T01:10:49.017Z,99900.00
2023-02-15T01:13:17.451Z,99887.00
2023-02-15T01:15:45.541Z,99894.00
2023-02-15T01:18:13.650Z,99884.00
2023-02-15T01:20:42.543Z,99894.00
2023-02-15T01:23:12.303Z,99883.00
2023-02-15T01:25:40.316Z,99879.00
2023-02-15T01:28:08.382Z,99871.00
2023-02-15T01:30:36.466Z,99875.00
2023-02-15T01:33:04.688Z,99868.00
2023-02-15T01:35:32.792Z,99879.00
2023-02-15T01:38:00.914Z,99867.00
2023-02-15T01:40:30.303Z,99860.00
2023-02-15T01:42:58.352Z,99872.00
2023-02-15T01:45:27.245Z,99867.00
2023-02-15T01:47:58.190Z,99879.00
2023-02-15T01:50:28.856Z,99868.00
2023-02-15T01:53:00.008Z,99872.00
2023-02-15T01:55:32.389Z,99867.00
2023-02-15T01:58:00.488Z,99868.00
2023-02-15T02:00:28.532Z,99860.00
2023-02-15T02:02:57.580Z,99861.00
2023-02-15T02:05:25.759Z,99855.00
2023-02-15T02:07:54.409Z,99852.00
2023-02-15T02:10:24.467Z,99847.00
2023-02-15T02:12:55.019Z,99852.00
2023-02-15T02:15:24.448Z,99837.00
2023-02-15T02:17:58.590Z,99840.00
2023-02-15T02:20:45.618Z,99836.00
2023-02-15T02:23:24.848Z,99833.00
2023-02-15T02:26:19.521Z,99830.00
2023-02-15T02:29:04.714Z,99828.00
2023-02-15T02:31:57.548Z,99829.00
2023-02-15T02:34:28.000Z,99827.00
2023-02-15T02:37:09.134Z,99835.00
2023-02-15T02:39:40.648Z,99828.00
2023-02-15T02:42:11.754Z,99819.00
2023-02-15T02:44:44.414Z,99824.00
2023-02-15T02:47:14.285Z,99824.00
2023-02-15T02:49:45.073Z,99819.00
2023-02-15T02:52:36.087Z,99823.00
2023-02-15T02:55:04.119Z,99818.00
2023-02-15T02:57:32.230Z,99826.00
2023-02-15T03:00:00.271Z,99817.00
2023-02-15T03:02:29.885Z,99813.00
2023-02-15T03:05:04.713Z,99807.00
2023-02-15T03:07:33.240Z,99812.00
2023-02-15T03:10:01.813Z,99817.00
2023-02-15T03:12:31.318Z,99824.00
2023-02-15T03:15:01.831Z,99831.00
2023-02-15T03:17:31.037Z,99825.00
2023-02-15T03:20:02.177Z,99827.00
2023-02-15T03:22:32.781Z,99832.00
2023-02-15T03:25:04.205Z,99832.00
2023-02-15T03:27:34.493Z,99829.00
2023-02-15T03:30:02.709Z,99827.00
2023-02-15T03:32:30.862Z,99824.00
2023-02-15T03:35:00.325Z,99818.00
2023-02-15T03:37:29.076Z,99821.00
2023-02-15T03:40:18.709Z,99810.00
2023-02-15T03:42:46.746Z,99809.00
2023-02-15T03:45:16.945Z,99819.00
2023-02-15T03:47:46.226Z,99823.00
2023-02-15T03:50:31.195Z,99812.00
2023-02-15T03:52:59.429Z,99824.00
2023-02-15T03:55:27.450Z,99817.00
2023-02-15T03:58:12.980Z,99817.00
2023-02-15T04:01:00.569Z,99823.00
2023-02-15T04:03:30.570Z,99823.00
2023-02-15T04:06:00.191Z,99822.00
2023-02-15T04:08:51.516Z,99817.00
2023-02-15T04:11:18.579Z,99819.00
2023-02-15T04:13:46.648Z,99823.00
2023-02-15T04:16:13.847Z,99810.00
2023-02-15T04:19:00.599Z,99818.00
2023-02-15T04:21:48.508Z,99811.00
2023-02-15T04:24:34.268Z,99819.00
2023-02-15T04:27:03.381Z,99797.00
2023-02-15T04:29:31.485Z,99807.00
2023-02-15T04:32:00.314Z,99806.00
2023-02-15T04:34:28.568Z,99812.00
2023-02-15T04:36:57.971Z,99812.00
2023-02-15T04:39:25.987Z,99808.00
2023-02-15T04:41:54.023Z,99802.00
2023-02-15T04:44:22.157Z,99793.00
2023-02-15T04:46:50.202Z,99795.00
2023-02-15T04:49:18.241Z,99791.00
2023-02-15T04:51:46.317Z,99799.00
2023-02-15T04:54:15.743Z,99801.00
2023-02-15T04:56:44.347Z,99795.00
2023-02-15T04:59:12.437Z,99796.00
2023-02-15T05:01:40.497Z,99795.00
2023-02-15T05:04:08.673Z,99786.00
2023-02-15T05:06:37.055Z,99788.00
2023-02-15T05:09:05.213Z,99788.00
2023-02-15T05:11:34.661Z,99793.00
2023-02-15T05:14:02.706Z,99791.00
2023-02-15T05:16:30.816Z,99801.00
2023-02-15T05:18:58.846Z,99796.00
2023-02-15T05:21:26.909Z,99789.00
2023-02-15T05:23:55.009Z,99799.00
2023-02-15T05:26:41.713Z,99777.00
2023-02-15T05:29:11.294Z,99782.00
2023-02-15T05:31:39.563Z,99781.00
2023-02-15T05:34:07.735Z,99788.00
2023-02-15T05:36:35.784Z,99779.00
2023-02-15T05:39:05.081Z,99776.00
2023-02-15T05:41:33.320Z,99770.00
2023-02-15T05:44:01.359Z,99776.00
2023-02-15T05:46:30.808Z,99766.00
2023-02-15T05:48:58.850Z,99775.00
2023-02-15T05:51:26.895Z,99770.00
2023-02-15T05:53:54.904Z,99763.00
2023-02-15T05:56:22.944Z,99765.00
2023-02-15T05:58:50.999Z,99779.00
2023-02-15T06:01:20.010Z,99774.00
2023-02-15T06:03:49.489Z,99773.00
2023-02-15T06:06:17.616Z,99792.00
2023-02-15T06:08:45.649Z,99779.00
2023-02-15T06:11:13.686Z,99775.00
2023-02-15T06:13:41.719Z,99767.00
2023-02-15T06:16:09.772Z,99762.00
2023-02-15T06:18:37.823Z,99765.00
2023-02-15T06:21:07.229Z,99781.00
2023-02-15T06:23:35.253Z,99776.00
2023-02-15T06:26:03.504Z,99792.00
2023-02-15T06:28:31.675Z,99781.00
2023-02-15T06:30:59.774Z,99786.00
2023-02-15T06:33:27.863Z,99780.00
2023-02-15T06:35:55.908Z,99780.00
2023-02-15T06:38:25.274Z,99788.00
2023-02-15T06:40:53.326Z,99781.00
2023-02-15T06:43:21.346Z,99783.00
2023-02-15T06:45:49.381Z,99768.00
2023-02-15T06:48:17.385Z,99778.00
2023-02-15T06:50:45.432Z,99787.00
2023-02-15T06:53:13.449Z,99788.00
2023-02-15T06:55:42.854Z,99791.00
2023-02-15T06:58:10.948Z,99791.00
2023-02-15T07:00:39.010Z,99791.00
2023-02-15T07:03:07.037Z,99788.00
2023-02-15T07:05:35.447Z,99794.00
2023-02-15T07:08:03.451Z,99789.00
2023-02-15T07:10:31.578Z,99797.00
2023-02-15T07:13:00.113Z,99798.00
2023-02-15T07:15:28.160Z,99791.00
2023-02-15T07:17:56.200Z,99785.00
2023-02-15T07:20:24.811Z,99785.00
2023-02-15T07:22:52.869Z,99781.00
2023-02-15T07:25:20.953Z,99790.00
2023-02-15T07:27:49.038Z,99794.00
2023-02-15T07:30:18.863Z,99783.00
2023-02-15T07:33:05.458Z,99784.00
2023-02-15T07:35:33.893Z,99778.00
2023-02-15T07:38:01.917Z,99788.00
2023-02-15T07:40:30.027Z,99771.00
2023-02-15T07:43:00.142Z,99781.00
2023-02-15T07:45:29.749Z,99784.00
2023-02-15T07:47:57.792Z,99787.00
2023-02-15T07:50:25.866Z,99784.00
2023-02-15T07:52:53.853Z,99782.00
2023-02-15T07:55:21.887Z,99783.00
2023-02-15T07:57:51.029Z,99792.00
2023-02-15T08:00:21.132Z,99793.00
2023-02-15T08:03:11.848Z,99795.00
2023-02-15T08:05:40.054Z,99802.00
2023-02-15T08:08:08.144Z,99807.00
2023-02-15T08:10:59.542Z,99800.00
2023-02-15T08:13:27.600Z,99795.00
2023-02-15T08:15:55.663Z,99807.00
2023-02-15T08:18:25.145Z,99789.00
2023-02-15T08:20:53.184Z,99784.00
2023-02-15T08:23:21.251Z,99791.00
2023-02-15T08:25:49.316Z,99796.00
2023-02-15T08:28:17.346Z,99800.00
2023-02-15T08:30:45.404Z,99792.00
2023-02-15T08:33:13.434Z,99801.00
2023-02-15T08:35:42.974Z,99790.00
2023-02-15T08:38:11.013Z,99790.00
2023-02-15T08:40:39.101Z,99788.00
2023-02-15T08:43:08.103Z,99791.00
2023-02-15T08:45:36.206Z,99778.00
2023-02-15T08:48:04.504Z,99790.00
2023-02-15T08:50:32.695Z,99778.00
2023-02-15T08:53:02.190Z,99769.00
2023-02-15T08:55:30.205Z,99777.00
2023-02-15T08:57:58.320Z,99776.00
2023-02-15T09:00:27.054Z,99782.00
2023-02-15T09:02:56.150Z,99776.00
2023-02-15T09:05:24.202Z,99783.00
2023-02-15T09:07:52.292Z,99786.00
2023-02-15T09:10:22.023Z,99783.00
2023-02-15T09:12:51.160Z,99788.00
2023-02-15T09:15:19.168Z,99782.00
2023-02-15T09:17:47.185Z,99788.00
2023-02-15T09:20:15.181Z,99781.00
2023-02-15T09:22:43.178Z,99776.00
2023-02-15T09:25:11.213Z,99776.00
2023-02-15T09:27:40.728Z,99777.00
2023-02-15T09:30:09.556Z,99788.00
2023-02-15T09:32:37.642Z,99779.00
2023-02-15T09:35:06.048Z,99783.00
2023-02-15T09:37:34.098Z,99791.00
2023-02-15T09:40:02.154Z,99782.00
2023-02-15T09:42:38.231Z,99788.00
2023-02-15T09:45:28.780Z,99788.00
2023-02-15T09:48:20.412Z,99792.00
2023-02-15T09:50:55.463Z,99796.00
2023-02-15T09:53:45.797Z,99783.00
2023-02-15T09:56:17.102Z,99785.00
2023-02-15T09:58:49.502Z,99789.00
2023-02-15T10:01:21.000Z,99781.00
2023-02-15T10:03:56.539Z,99780.00
2023-02-15T10:06:33.836Z,99780.00
2023-02-15T10:09:10.206Z,99778.00
2023-02-15T10:11:46.593Z,99779.00
2023-02-15T10:14:39.761Z,99773.00
2023-02-15T10:17:16.751Z,99770.00
2023-02-15T10:19:46.748Z,99756.00
2023-02-15T10:22:23.306Z,99755.00
2023-02-15T10:25:13.945Z,99758.00
2023-02-15T10:27:45.686Z,99758.00
2023-02-15T10:30:14.404Z,99761.00
2023-02-15T10:32:48.873Z,99770.00
2023-02-15T10:35:21.116Z,99764.00
2023-02-15T10:38:03.601Z,99761.00
2023-02-15T10:40:38.637Z,99766.00
2023-02-15T10:43:24.982Z,99751.00
2023-02-15T10:45:58.870Z,99747.00
2023-02-15T10:48:36.756Z,99696.00
2023-02-15T10:51:05.375Z,99753.00
2023-02-15T10:53:40.950Z,99739.00
2023-02-15T10:56:16.795Z,99666.00
2023-02-15T10:58:55.400Z,99733.00
2023-02-15T11:01:25.946Z,99745.00
2023-02-15T11:04:10.337Z,99738.00
2023-02-15T11:06:39.045Z,99755.00
2023-02-15T11:09:10.800Z,99722.00
2023-02-15T11:11:41.577Z,99691.00
2023-02-15T11:14:13.345Z,99739.00
2023-02-15T11:16:42.894Z,99717.00
2023-02-15T11:19:14.390Z,99683.00
2023-02-15T11:21:44.446Z,99713.00
2023-02-15T11:24:13.217Z,99711.00
2023-02-15T11:26:43.223Z,99678.00
2023-02-15T11:29:13.732Z,99719.00
2023-02-15T11:31:45.581Z,99718.00
2023-02-15T11:34:18.306Z,99708.00
2023-02-15T11:36:46.560Z,99673.00
2023-02-15T11:39:16.062Z,99633.00
2023-02-15T11:41:46.748Z,99673.00
2023-02-15T11:44:17.321Z,99707.00
2023-02-15T11:46:45.468Z,99708.00
2023-02-15T11:49:23.687Z,99708.00
2023-02-15T11:51:52.725Z,99701.00
2023-02-15T11:54:21.493Z,99697.00
2023-02-15T11:56:49.771Z,99692.00
2023-02-15T11:59:21.012Z,99680.00
2023-02-15T12:01:49.187Z,99686.00
2023-02-15T12:04:22.694Z,99681.00
2023-02-15T12:06:51.698Z,99679.00
2023-02-15T12:09:23.424Z,99686.00
2023-02-15T12:11:51.725Z,99684.00
2023-02-15T12:14:19.751Z,99685.00
2023-02-15T12:16:48.740Z,99673.00
2023-02-15T12:19:30.592Z,99683.00
2023-02-15T12:21:58.677Z,99690.00
2023-02-15T12:24:28.543Z,99685.00
2023-02-15T12:27:01.860Z,99678.00
2023-02-15T12:29:31.488Z,99667.00
2023-02-15T12:31:59.702Z,99665.00
2023-02-15T12:34:30.836Z,99670.00
2023-02-15T12:36:59.928Z,99669.00
2023-02-15T12:39:28.581Z,99677.00
2023-02-15T12:42:02.241Z,99663.00
2023-02-15T12:44:30.761Z,99665.00
2023-02-15T12:47:00.216Z,99666.00
2023-02-15T12:49:29.768Z,99656.00
2023-02-15T12:51:58.967Z,99662.00
2023-02-15T12:54:36.433Z,99659.00
2023-02-15T12:57:17.795Z,99658.00
2023-02-15T12:59:50.795Z,99649.00
2023-02-15T13:02:26.192Z,99640.00
2023-02-15T13:04:56.098Z,99634.00
2023-02-15T13:07:24.167Z,99637.00
2023-02-15T13:09:52.185Z,99644.00
2023-02-15T13:12:22.564Z,99638.00
2023-02-15T13:14:52.939Z,99649.00
2023-02-15T13:17:22.413Z,99643.00
2023-02-15T13:19:52.104Z,99641.00
2023-02-15T13:22:22.533Z,99640.00
2023-02-15T13:24:51.114Z,99637.00
2023-02-15T13:27:20.929Z,99649.00
2023-02-15T13:29:50.571Z,99641.00
2023-02-15T13:32:26.526Z,99637.00
2023-02-15T13:34:55.233Z,99632.00
2023-02-15T13:37:32.794Z,99634.00
2023-02-15T13:40:02.833Z,99641.00
2023-02-15T13:42:33.539Z,99635.00
2023-02-15T13:45:11.303Z,99629.00
2023-02-15T13:47:45.541Z,99622.00
2023-02-15T13:50:36.321Z,99629.00
2023-02-15T13:53:16.935Z,99628.00
2023-02-15T13:55:46.654Z,99617.00
2023-02-15T13:58:42.681Z,99634.00
2023-02-15T14:01:11.820Z,99631.00
2023-02-15T14:03:54.554Z,99629.00
2023-02-15T14:06:40.709Z,99628.00
2023-02-15T14:09:16.061Z,99632.00
2023-02-15T14:11:46.951Z,99640.00
2023-02-15T14:14:27.049Z,99623.00
2023-02-15T14:17:06.655Z,99625.00
2023-02-15T14:19:37.939Z,99615.00
2023-02-15T14:22:12.074Z,99606.00
2023-02-15T14:24:44.349Z,99614.00
2023-02-15T14:27:18.282Z,99610.00
2023-02-15T14:29:50.496Z,99609.00
2023-02-15T14:32:22.406Z,99604.00
2023-02-15T14:34:52.007Z,99615.00
2023-02-15T14:37:22.839Z,99602.00
2023-02-15T14:40:12.109Z,99613.00
2023-02-15T14:42:44.045Z,99600.00
2023-02-15T14:45:19.365Z,99601.00
2023-02-15T14:47:50.515Z,99602.00
2023-02-15T14:50:45.216Z,99595.00
2023-02-15T14:53:37.372Z,99587.00
2023-02-15T14:56:28.445Z,99595.00
2023-02-15T14:59:18.713Z,99594.00
2023-02-15T15:02:00.146Z,99590.00
2023-02-15T15:04:31.720Z,99593.00
2023-02-15T15:07:02.834Z,99577.00
2023-02-15T15:09:31.536Z,99584.00
2023-02-15T15:12:15.649Z,99578.00
2023-02-15T15:14:44.018Z,99581.00
2023-02-15T15:17:13.109Z,99583.00
2023-02-15T15:20:05.130Z,99575.00
2023-02-15T15:22:33.620Z,99573.00
2023-02-15T15:25:01.739Z,99572.00
2023-02-15T15:27:51.228Z,99575.00
2023-02-15T15:30:52.010Z,99573.00
2023-02-15T15:34:10.398Z,99579.00
2023-02-15T15:37:20.051Z,99577.00
2023-02-15T15:40:15.098Z,99576.00
2023-02-15T15:42:52.466Z,99565.00
2023-02-15T15:45:36.300Z,99576.00
2023-02-15T15:48:16.422Z,99576.00
2023-02-15T15:50:44.669Z,99587.00
2023-02-15T15:53:17.605Z,99585.00
2023-02-15T15:55:45.639Z,99574.00
2023-02-15T15:58:16.643Z,99579.00
2023-02-15T16:00:45.755Z,99564.00
2023-02-15T16:03:16.521Z,99576.00
2023-02-15T16:05:44.604Z,99577.00
2023-02-15T16:08:12.657Z,99582.00
2023-02-15T16:10:40.773Z,99572.00
2023-02-15T16:13:08.843Z,99567.00
2023-02-15T16:15:45.380Z,99575.00
2023-02-15T16:18:15.660Z,99574.00
2023-02-15T16:20:43.931Z,99582.00
2023-02-15T16:23:22.762Z,99583.00
2023-02-15T16:25:56.704Z,99580.00
2023-02-15T16:28:24.742Z,99584.00
2023-02-15T16:31:06.585Z,99584.00
2023-02-15T16:33:38.081Z,99590.00
2023-02-15T16:36:08.867Z,99591.00
2023-02-15T16:39:10.161Z,99580.00
2023-02-15T16:41:38.757Z,99572.00
2023-02-15T16:44:09.206Z,99570.00
2023-02-15T16:46:40.660Z,99569.00
2023-02-15T16:49:09.757Z,99560.00
2023-02-15T16:51:37.830Z,99568.00
2023-02-15T16:54:07.706Z,99567.00
2023-02-15T16:56:35.922Z,99560.00
2023-02-15T16:59:04.380Z,99557.00
2023-02-15T17:01:33.715Z,99569.00
2023-02-15T17:04:16.850Z,99577.00
2023-02-15T17:06:44.878Z,99564.00
2023-02-15T17:09:17.289Z,99560.00
2023-02-15T17:11:46.448Z,99556.00
2023-02-15T17:14:16.513Z,99565.00
2023-02-15T17:16:45.590Z,99561.00
2023-02-15T17:19:17.659Z,99561.00
2023-02-15T17:21:50.125Z,99548.00
2023-02-15T17:24:18.841Z,99563.00
2023-02-15T17:26:50.513Z,99551.00
2023-02-15T17:29:24.609Z,99563.00
2023-02-15T17:31:53.777Z,99571.00
2023-02-15T17:34:49.178Z,99567.00
2023-02-15T17:37:26.508Z,99574.00
2023-02-15T17:39:54.735Z,99580.00
2023-02-15T17:42:24.290Z,99591.00
2023-02-15T17:44:52.512Z,99571.00
2023-02-15T17:47:21.546Z,99581.00
2023-02-15T17:49:51.235Z,99580.00
2023-02-15T17:52:19.522Z,99576.00
2023-02-15T17:55:06.443Z,99578.00
2023-02-15T17:57:34.527Z,99583.00
2023-02-15T18:00:20.055Z,99590.00
2023-02-15T18:03:05.946Z,99577.00
2023-02-15T18:05:53.285Z,99578.00
2023-02-15T18:08:41.732Z,99575.00
2023-02-15T18:11:28.139Z,99589.00
2023-02-15T18:13:58.132Z,99576.00
2023-02-15T18:16:27.400Z,99572.00
2023-02-15T18:18:55.731Z,99572.00
2023-02-15T18:21:25.444Z,99566.00
2023-02-15T18:23:53.678Z,99578.00
2023-02-15T18:26:23.102Z,99573.00
2023-02-15T18:28:51.480Z,99567.00
2023-02-15T18:31:19.796Z,99588.00
2023-02-15T18:33:49.151Z,99573.00
2023-02-15T18:36:20.355Z,99573.00
2023-02-15T18:38:50.364Z,99573.00
2023-02-15T18:41:19.693Z,99585.00
2023-02-15T18:43:48.877Z,99579.00
2023-02-15T18:46:19.229Z,99581.00
2023-02-15T18:48:47.443Z,99574.00
2023-02-15T18:51:19.963Z,99577.00
2023-02-15T18:53:50.124Z,99588.00
2023-02-15T18:56:18.923Z,99585.00
2023-02-15T18:58:48.310Z,99593.00
2023-02-15T19:01:17.794Z,99595.00
2023-02-15T19:03:47.592Z,99593.00
2023-02-15T19:06:16.516Z,99576.00
2023-02-15T19:08:45.355Z,99587.00
2023-02-15T19:11:16.812Z,99592.00
2023-02-15T19:13:45.642Z,99577.00
2023-02-15T19:16:27.558Z,99580.00
2023-02-15T19:18:55.919Z,99586.00
2023-02-15T19:21:24.212Z,99564.00
2023-02-15T19:23:55.607Z,99590.00
2023-02-15T19:26:30.736Z,99573.00
2023-02-15T19:29:07.792Z,99581.00
2023-02-15T19:31:36.055Z,99571.00
2023-02-15T19:34:14.292Z,99572.00
2023-02-15T19:36:42.556Z,99577.00
2023-02-15T19:39:16.589Z,99573.00
2023-02-15T19:41:46.115Z,99572.00
2023-02-15T19:44:14.266Z,99568.00
2023-02-15T19:46:42.386Z,99583.00
2023-02-15T19:49:11.634Z,99573.00
2023-02-15T19:51:40.090Z,99573.00
2023-02-15T19:54:31.705Z,99566.00
2023-02-15T19:57:01.374Z,99566.00
2023-02-15T19:59:32.346Z,99560.00
2023-02-15T20:02:00.463Z,99572.00
2023-02-15T20:04:28.796Z,99568.00
2023-02-15T20:06:58.286Z,99566.00
2023-02-15T20:09:40.914Z,99566.00
2023-02-15T20:12:17.574Z,99567.00
2023-02-15T20:14:45.704Z,99560.00
2023-02-15T20:17:13.839Z,99556.00
2023-02-15T20:19:41.878Z,99567.00
2023-02-15T20:22:12.798Z,99556.00
2023-02-15T20:24:40.851Z,99565.00
2023-02-15T20:27:11.446Z,99549.00
2023-02-15T20:29:40.945Z,99547.00
2023-02-15T20:32:10.704Z,99538.00
2023-02-15T20:34:38.834Z,99535.00
2023-02-15T20:37:06.963Z,99532.00
2023-02-15T20:39:37.147Z,99534.00
2023-02-15T20:42:05.525Z,99537.00
2023-02-15T20:44:34.494Z,99533.00
2023-02-15T20:47:03.917Z,99529.00
2023-02-15T20:49:31.963Z,99534.00
2023-02-15T20:52:00.128Z,99535.00
2023-02-15T20:54:30.469Z,99539.00
2023-02-15T20:56:59.250Z,99526.00
2023-02-15T20:59:28.273Z,99538.00
2023-02-15T21:01:59.177Z,99531.00
2023-02-15T21:04:31.694Z,99536.00
2023-02-15T21:06:59.863Z,99542.00
2023-02-15T21:09:27.949Z,99533.00
2023-02-15T21:11:56.987Z,99529.00
2023-02-15T21:14:25.858Z,99528.00
2023-02-15T21:16:54.206Z,99531.00
2023-02-15T21:19:23.231Z,99537.00
2023-02-15T21:21:53.390Z,99535.00
2023-02-15T21:24:23.246Z,99525.00
2023-02-15T21:26:51.332Z,99539.00
2023-02-15T21:29:19.562Z,99544.00
2023-02-15T21:31:48.810Z,99544.00
2023-02-15T21:34:18.159Z,99533.00
2023-02-15T21:36:46.297Z,99531.00
2023-02-15T21:39:19.130Z,99527.00
2023-02-15T21:42:05.068Z,99539.00
2023-02-15T21:44:50.836Z,99532.00
2023-02-15T21:47:37.215Z,99540.00
2023-02-15T21:50:26.392Z,99537.00
2023-02-15T21:52:53.481Z,99548.00
2023-02-15T21:55:22.937Z,99535.00
2023-02-15T21:57:50.989Z,99535.00
2023-02-15T22:00:20.537Z,99540.00
2023-02-15T22:02:49.092Z,99547.00
2023-02-15T22:05:18.041Z,99542.00
2023-02-15T22:07:46.286Z,99535.00
2023-02-15T22:10:14.393Z,99530.00
2023-02-15T22:12:44.471Z,99528.00
2023-02-15T22:15:19.023Z,99528.00
2023-02-15T22:17:47.099Z,99541.00
2023-02-15T22:20:17.332Z,99535.00
2023-02-15T22:22:45.412Z,99544.00
2023-02-15T22:25:14.879Z,99544.00
2023-02-15T22:27:44.465Z,99546.00
2023-02-15T22:30:20.962Z,99541.00
2023-02-15T22:32:49.014Z,99548.00
2023-02-15T22:35:18.089Z,99547.00
2023-02-15T22:37:46.271Z,99538.00
2023-02-15T22:40:15.917Z,99545.00
2023-02-15T22:42:46.237Z,99547.00
2023-02-15T22:45:17.438Z,99534.00
2023-02-15T22:47:45.492Z,99543.00
2023-02-15T22:50:18.663Z,99540.00
2023-02-15T22:52:46.684Z,99545.00
2023-02-15T22:55:16.123Z,99555.00
2023-02-15T22:57:45.590Z,99536.00
2023-02-15T23:00:17.163Z,99538.00
2023-02-15T23:02:45.172Z,99543.00
2023-02-15T23:05:20.511Z,99533.00
2023-02-15T23:07:49.006Z,99533.00
2023-02-15T23:10:26.523Z,99535.00
2023-02-15T23:13:14.574Z,99539.00
2023-02-15T23:15:42.849Z,99532.00
2023-02-15T23:18:18.099Z,99532.00
2023-02-15T23:20:46.766Z,99526.00
2023-02-15T23:23:15.166Z,99532.00
2023-02-15T23:25:43.319Z,99523.00
2023-02-15T23:28:22.448Z,99536.00
2023-02-15T23:30:50.527Z,99521.00
2023-02-15T23:33:21.110Z,99521.00
2023-02-15T23:35:49.740Z,99520.00
2023-02-15T23:38:22.328Z,99530.00
2023-02-15T23:41:12.230Z,99519.00
2023-02-15T23:43:43.067Z,99510.00
2023-02-15T23:46:15.393Z,99512.00
2023-02-15T23:48:43.552Z,99514.00
2023-02-15T23:51:11.577Z,99512.00
2023-02-15T23:53:39.726Z,99520.00
2023-02-15T23:56:08.067Z,99514.00
2023-02-15T23:58:37.631Z,99517.00
